Time;durP1;ratioP1;P1;durP2;ratioP2;P2;SDS_P1;SDS_P2;PMS_P1;PMS_P2;Temp;Humidity;BMP_temperature;BMP_pressure;BME280_temperature;BME280_humidity;BME280_pressure;Samples;Min_cycle;Max_cycle;Signal;HPM_P1;HPM_P2
2022/08/26 00:01:10;;;;;;;21.00;6.32;;;;;;;;;;5060658;28;20045;-68
2022/08/26 00:03:37;;;;;;;14.60;6.22;;;;;;;;;;5059946;28;20110;-68
2022/08/26 00:06:05;;;;;;;16.77;4.90;;;;;;;;;;5060602;28;20060;-68
2022/08/26 00:08:34;;;;;;;16.77;5.43;;;;;;;;;;5047008;28;20155;-68
2022/08/26 00:11:01;;;;;;;17.85;5.68;;;;;;;;;;5063743;28;20433;-68
2022/08/26 00:13:29;;;;;;;21.10;6.30;;;;;;;;;;5067386;28;20048;-68
2022/08/26 00:15:56;;;;;;;22.45;5.35;;;;;;;;;;5060478;28;20501;-68
2022/08/26 00:18:23;;;;;;;13.90;5.88;;;;;;;;;;5065546;28;20056;-67
2022/08/26 00:20:51;;;;;;;17.27;5.70;;;;;;;;;;5065505;28;20060;-68
2022/08/26 00:23:18;;;;;;;9.88;4.05;;;;;;;;;;5060218;28;20055;-68
2022/08/26 00:25:47;;;;;;;16.52;4.82;;;;;;;;;;5063817;28;20425;-68
2022/08/26 00:28:14;;;;;;;14.15;3.92;;;;;;;;;;5069098;28;20044;-68
2022/08/26 00:30:42;;;;;;;14.02;4.45;;;;;;;;;;5059425;28;20495;-68
2022/08/26 00:33:09;;;;;;;12.52;3.92;;;;;;;;;;5060530;28;20446;-68
2022/08/26 00:35:36;;;;;;;13.10;4.50;;;;;;;;;;5061409;28;20060;-67
2022/08/26 00:38:04;;;;;;;16.13;4.35;;;;;;;;;;5047268;28;20061;-68
2022/08/26 00:40:32;;;;;;;12.68;3.70;;;;;;;;;;5062463;28;20045;-68
2022/08/26 00:43:01;;;;;;;14.25;4.45;;;;;;;;;;5067781;28;20106;-68
2022/08/26 00:45:32;;;;;;;15.73;4.00;;;;;;;;;;5052191;28;20401;-68
2022/08/26 00:48:02;;;;;;;12.43;3.05;;;;;;;;;;5067396;28;20493;-68
2022/08/26 00:50:31;;;;;;;12.43;3.28;;;;;;;;;;5067544;28;20084;-67
2022/08/26 00:53:00;;;;;;;13.13;3.40;;;;;;;;;;5067326;28;20052;-68
2022/08/26 00:55:32;;;;;;;14.55;2.85;;;;;;;;;;5054410;28;20114;-67
2022/08/26 00:58:01;;;;;;;14.13;2.97;;;;;;;;;;5070118;28;20048;-68
2022/08/26 01:00:29;;;;;;;11.80;3.08;;;;;;;;;;5069805;28;20052;-68
2022/08/26 01:02:59;;;;;;;14.85;3.00;;;;;;;;;;5067116;28;20060;-67
2022/08/26 01:05:26;;;;;;;16.35;3.10;;;;;;;;;;5069349;28;20056;-68
2022/08/26 01:07:54;;;;;;;14.73;3.30;;;;;;;;;;5045947;28;20427;-67
2022/08/26 01:10:23;;;;;;;15.30;3.15;;;;;;;;;;5064671;28;20428;-68
2022/08/26 01:12:52;;;;;;;10.55;2.10;;;;;;;;;;5068805;28;20102;-68
2022/08/26 01:15:23;;;;;;;10.63;2.20;;;;;;;;;;5051751;28;20089;-68
2022/08/26 01:17:50;;;;;;;8.52;2.05;;;;;;;;;;5067168;28;20057;-68
2022/08/26 01:20:26;;;;;;;9.60;2.40;;;;;;;;;;5062782;28;20056;-68
2022/08/26 01:22:56;;;;;;;15.57;2.65;;;;;;;;;;5049905;28;20682;-68
2022/08/26 01:25:24;;;;;;;8.10;2.08;;;;;;;;;;5066951;28;20048;-68
2022/08/26 01:27:52;;;;;;;9.55;2.40;;;;;;;;;;5067694;28;20056;-68
2022/08/26 01:30:20;;;;;;;8.73;2.00;;;;;;;;;;5067240;28;20106;-68
2022/08/26 01:32:47;;;;;;;6.20;1.80;;;;;;;;;;5063720;28;20048;-68
2022/08/26 01:35:15;;;;;;;13.93;1.85;;;;;;;;;;5066044;28;20055;-67
2022/08/26 01:37:42;;;;;;;7.43;2.00;;;;;;;;;;5065392;28;20381;-68
2022/08/26 01:40:14;;;;;;;9.02;1.48;;;;;;;;;;5063583;28;20411;-68
2022/08/26 01:42:42;;;;;;;8.95;1.60;;;;;;;;;;5065944;28;20117;-68
2022/08/26 01:45:11;;;;;;;9.82;2.22;;;;;;;;;;5056150;28;20056;-68
2022/08/26 01:47:39;;;;;;;13.27;2.00;;;;;;;;;;5062950;28;20056;-67
2022/08/26 01:50:08;;;;;;;6.00;1.40;;;;;;;;;;5067477;28;20052;-68
2022/08/26 01:52:36;;;;;;;11.10;1.65;;;;;;;;;;5049275;28;20049;-67
2022/08/26 01:55:05;;;;;;;14.98;2.33;;;;;;;;;;5062666;28;20053;-68
2022/08/26 01:57:34;;;;;;;8.75;1.92;;;;;;;;;;5062931;28;20049;-69
2022/08/26 02:00:03;;;;;;;9.68;1.73;;;;;;;;;;5067802;28;20052;-68
2022/08/26 02:02:30;;;;;;;15.43;2.17;;;;;;;;;;5068909;28;20542;-68
2022/08/26 02:04:59;;;;;;;10.25;1.80;;;;;;;;;;5045158;28;20064;-67
2022/08/26 02:07:26;;;;;;;11.68;2.40;;;;;;;;;;5062361;28;20044;-68
2022/08/26 02:09:53;;;;;;;13.65;2.50;;;;;;;;;;5053458;28;20060;-68
2022/08/26 02:12:21;;;;;;;10.52;2.20;;;;;;;;;;5062184;28;20044;-68
2022/08/26 02:14:52;;;;;;;14.27;2.58;;;;;;;;;;5054604;28;20048;-68
2022/08/26 02:17:22;;;;;;;13.15;2.28;;;;;;;;;;5056316;28;20106;-68
2022/08/26 02:19:50;;;;;;;14.50;2.13;;;;;;;;;;5069103;28;20055;-68
2022/08/26 02:22:19;;;;;;;10.73;2.10;;;;;;;;;;5045821;28;20491;-68
2022/08/26 02:24:49;;;;;;;14.45;2.78;;;;;;;;;;5068012;28;20458;-68
2022/08/26 02:27:17;;;;;;;12.07;2.33;;;;;;;;;;5053934;28;20056;-68
2022/08/26 02:29:46;;;;;;;8.45;2.08;;;;;;;;;;5068964;28;20050;-68
2022/08/26 02:32:16;;;;;;;12.18;2.03;;;;;;;;;;5072776;28;20538;-68
2022/08/26 02:34:44;;;;;;;15.93;2.85;;;;;;;;;;5066307;28;20503;-68
2022/08/26 02:37:12;;;;;;;14.38;2.17;;;;;;;;;;5065018;28;20048;-68
2022/08/26 02:39:40;;;;;;;13.95;2.13;;;;;;;;;;5055706;28;20052;-67
2022/08/26 02:42:08;;;;;;;13.40;2.00;;;;;;;;;;5034207;28;20723;-68
2022/08/26 02:44:35;;;;;;;9.48;2.08;;;;;;;;;;5065418;28;20053;-68
2022/08/26 02:47:03;;;;;;;14.88;2.47;;;;;;;;;;5044617;28;20053;-68
2022/08/26 02:49:31;;;;;;;16.52;3.10;;;;;;;;;;5062719;28;20539;-68
2022/08/26 02:51:59;;;;;;;12.70;2.15;;;;;;;;;;5048120;28;20097;-68
2022/08/26 02:54:26;;;;;;;16.30;2.85;;;;;;;;;;5067115;28;20099;-68
2022/08/26 02:56:54;;;;;;;13.18;2.00;;;;;;;;;;5061380;28;20057;-67
2022/08/26 02:59:21;;;;;;;15.45;2.67;;;;;;;;;;5062340;28;20086;-68
2022/08/26 03:01:49;;;;;;;12.40;2.10;;;;;;;;;;5064006;28;20074;-68
2022/08/26 03:04:16;;;;;;;12.25;2.25;;;;;;;;;;5060024;28;20628;-68
2022/08/26 03:06:45;;;;;;;9.75;2.30;;;;;;;;;;5064536;28;20119;-68
2022/08/26 03:09:12;;;;;;;12.55;2.30;;;;;;;;;;5059269;28;20040;-68
2022/08/26 03:11:39;;;;;;;10.68;2.22;;;;;;;;;;5065000;28;20754;-68
2022/08/26 03:14:07;;;;;;;11.15;1.95;;;;;;;;;;5071368;28;20062;-68
2022/08/26 03:16:34;;;;;;;18.63;2.70;;;;;;;;;;5066357;28;20051;-68
2022/08/26 03:19:02;;;;;;;16.23;2.50;;;;;;;;;;5069272;28;20051;-68
2022/08/26 03:21:30;;;;;;;17.40;2.20;;;;;;;;;;5061878;28;20056;-68
2022/08/26 03:23:59;;;;;;;15.50;2.60;;;;;;;;;;5064760;28;20128;-67
2022/08/26 03:26:26;;;;;;;10.95;2.13;;;;;;;;;;5061459;28;20048;-68
2022/08/26 03:31:38;;;;;;;15.50;2.53;;;;;;;;;;5062738;28;20054;-68
2022/08/26 03:34:06;;;;;;;14.63;3.08;;;;;;;;;;5060097;28;20642;-68
2022/08/26 03:36:33;;;;;;;11.60;2.10;;;;;;;;;;5068700;28;20144;-67
2022/08/26 03:39:01;;;;;;;12.07;2.35;;;;;;;;;;5071825;28;20056;-68
2022/08/26 03:41:31;;;;;;;13.55;2.30;;;;;;;;;;5067912;28;20443;-68
2022/08/26 03:43:59;;;;;;;14.52;2.38;;;;;;;;;;5064450;28;20044;-68
2022/08/26 03:46:26;;;;;;;9.05;1.77;;;;;;;;;;5048538;28;20040;-68
2022/08/26 03:48:53;;;;;;;12.27;1.88;;;;;;;;;;5046150;28;20058;-68
2022/08/26 03:51:21;;;;;;;14.68;2.50;;;;;;;;;;5065515;28;20101;-68
2022/08/26 03:53:48;;;;;;;14.05;1.80;;;;;;;;;;5066277;28;20052;-67
2022/08/26 03:56:16;;;;;;;15.52;2.28;;;;;;;;;;5067838;28;20102;-68
2022/08/26 03:58:44;;;;;;;11.95;2.08;;;;;;;;;;5045850;28;20063;-67
2022/08/26 04:01:11;;;;;;;17.60;2.95;;;;;;;;;;5063040;28;20051;-67
2022/08/26 04:06:23;;;;;;;10.30;1.95;;;;;;;;;;5058600;28;20044;-67
2022/08/26 04:08:51;;;;;;;12.57;2.10;;;;;;;;;;5064078;28;20048;-67
2022/08/26 04:11:20;;;;;;;13.20;2.28;;;;;;;;;;5076282;28;20064;-68
2022/08/26 04:13:48;;;;;;;18.10;2.40;;;;;;;;;;5070822;28;20769;-67
2022/08/26 04:16:15;;;;;;;12.38;2.25;;;;;;;;;;5074895;28;20048;-68
2022/08/26 04:18:43;;;;;;;14.30;2.63;;;;;;;;;;5074613;28;20051;-68
2022/08/26 04:21:11;;;;;;;13.40;2.55;;;;;;;;;;5068979;28;20044;-68
2022/08/26 04:23:39;;;;;;;18.48;2.40;;;;;;;;;;5072726;28;20140;-67
2022/08/26 04:26:06;;;;;;;15.57;3.10;;;;;;;;;;5064189;28;20053;-67
2022/08/26 04:28:34;;;;;;;14.73;2.60;;;;;;;;;;5049383;28;20048;-67
2022/08/26 04:31:02;;;;;;;17.30;2.20;;;;;;;;;;5062053;28;20048;-67
2022/08/26 04:33:29;;;;;;;13.10;2.17;;;;;;;;;;5070416;28;20040;-67
2022/08/26 04:36:00;;;;;;;15.82;1.88;;;;;;;;;;5068095;28;20122;-67
2022/08/26 04:38:28;;;;;;;16.52;3.47;;;;;;;;;;5069475;28;20051;-68
2022/08/26 04:40:55;;;;;;;10.88;1.77;;;;;;;;;;5068805;28;20088;-68
2022/08/26 04:43:22;;;;;;;20.08;2.67;;;;;;;;;;5062758;28;20048;-68
2022/08/26 04:45:51;;;;;;;19.25;3.03;;;;;;;;;;5064672;28;20045;-68
2022/08/26 04:48:18;;;;;;;21.20;3.30;;;;;;;;;;5072932;28;20052;-69
2022/08/26 04:50:45;;;;;;;13.15;2.40;;;;;;;;;;5053424;28;20063;-69
2022/08/26 04:53:13;;;;;;;16.08;2.90;;;;;;;;;;5073594;28;20036;-68
2022/08/26 04:55:40;;;;;;;18.30;2.30;;;;;;;;;;5071632;28;20052;-69
2022/08/26 04:58:08;;;;;;;16.00;2.15;;;;;;;;;;5072334;28;20064;-69
2022/08/26 05:00:35;;;;;;;22.75;2.30;;;;;;;;;;5063216;28;20049;-69
2022/08/26 05:03:04;;;;;;;19.88;2.28;;;;;;;;;;5066882;28;20444;-68
2022/08/26 05:05:31;;;;;;;19.83;2.83;;;;;;;;;;5067004;28;20415;-68
2022/08/26 05:07:58;;;;;;;18.23;2.13;;;;;;;;;;5066522;28;20816;-68
2022/08/26 05:10:26;;;;;;;12.20;2.13;;;;;;;;;;5067771;28;20057;-68
2022/08/26 05:12:53;;;;;;;24.00;2.83;;;;;;;;;;5063570;28;20045;-68
2022/08/26 05:15:20;;;;;;;12.65;1.92;;;;;;;;;;5068590;28;20052;-68
2022/08/26 05:17:50;;;;;;;12.75;2.10;;;;;;;;;;5066454;28;20048;-68
2022/08/26 05:20:18;;;;;;;16.75;2.20;;;;;;;;;;5073544;28;20067;-68
2022/08/26 05:22:46;;;;;;;12.73;2.40;;;;;;;;;;5062650;28;20056;-68
2022/08/26 05:25:13;;;;;;;22.00;2.30;;;;;;;;;;5062164;28;20056;-68
2022/08/26 05:27:40;;;;;;;18.80;3.17;;;;;;;;;;5068043;28;20062;-69
2022/08/26 05:30:09;;;;;;;22.33;2.33;;;;;;;;;;5064871;28;20053;-68
2022/08/26 05:32:36;;;;;;;18.42;2.45;;;;;;;;;;5069467;28;20056;-68
2022/08/26 05:35:03;;;;;;;16.95;2.20;;;;;;;;;;5067157;28;20044;-68
2022/08/26 05:37:32;;;;;;;9.05;1.83;;;;;;;;;;5065400;28;20046;-68
2022/08/26 05:39:59;;;;;;;10.27;1.98;;;;;;;;;;5055913;28;20163;-68
2022/08/26 05:42:27;;;;;;;21.10;2.10;;;;;;;;;;5060474;28;20071;-68
2022/08/26 05:44:55;;;;;;;12.32;1.80;;;;;;;;;;5056599;28;20056;-68
2022/08/26 05:47:23;;;;;;;13.52;2.30;;;;;;;;;;5056757;28;20419;-68
2022/08/26 05:49:50;;;;;;;14.00;2.50;;;;;;;;;;5062264;28;20056;-67
2022/08/26 05:52:17;;;;;;;16.08;2.42;;;;;;;;;;5060722;28;20049;-67
2022/08/26 05:54:46;;;;;;;10.68;1.90;;;;;;;;;;5068600;28;20071;-68
2022/08/26 05:57:13;;;;;;;16.55;2.08;;;;;;;;;;5066873;28;20082;-68
2022/08/26 05:59:41;;;;;;;12.88;2.22;;;;;;;;;;5066476;28;20047;-68
2022/08/26 06:02:08;;;;;;;25.40;3.40;;;;;;;;;;5048752;28;20060;-68
2022/08/26 06:04:35;;;;;;;16.98;1.92;;;;;;;;;;5064531;28;20048;-68
2022/08/26 06:07:03;;;;;;;11.75;1.75;;;;;;;;;;5062643;28;20045;-68
2022/08/26 06:09:30;;;;;;;13.73;1.77;;;;;;;;;;5065474;28;20514;-68
2022/08/26 06:12:00;;;;;;;19.83;2.47;;;;;;;;;;5063217;28;20064;-68
2022/08/26 06:14:27;;;;;;;10.80;1.77;;;;;;;;;;5065313;28;20510;-68
2022/08/26 06:16:55;;;;;;;19.77;2.75;;;;;;;;;;5061590;28;20151;-67
2022/08/26 06:19:22;;;;;;;10.65;1.63;;;;;;;;;;5059679;28;20629;-67
2022/08/26 06:21:50;;;;;;;9.93;1.77;;;;;;;;;;5056575;28;20060;-67
2022/08/26 06:27:08;;;;;;;14.82;2.53;;;;;;;;;;5053097;28;20174;-66
2022/08/26 06:29:36;;;;;;;10.77;1.80;;;;;;;;;;5062197;28;20124;-68
2022/08/26 06:32:04;;;;;;;10.80;2.13;;;;;;;;;;5052616;28;20047;-66
2022/08/26 06:34:31;;;;;;;13.82;2.00;;;;;;;;;;5063358;28;20491;-67
2022/08/26 06:37:01;;;;;;;15.30;1.70;;;;;;;;;;5065471;28;20053;-69
2022/08/26 06:39:28;;;;;;;8.85;1.50;;;;;;;;;;5061613;28;20119;-69
2022/08/26 06:41:55;;;;;;;12.95;1.50;;;;;;;;;;5038462;28;20504;-68
2022/08/26 06:44:24;;;;;;;12.18;2.10;;;;;;;;;;5065285;28;20801;-68
2022/08/26 06:46:52;;;;;;;13.60;2.03;;;;;;;;;;5058209;28;20059;-67
2022/08/26 06:49:19;;;;;;;12.38;2.05;;;;;;;;;;5060349;28;20078;-69
2022/08/26 06:51:46;;;;;;;15.27;2.10;;;;;;;;;;5061664;28;20053;-68
2022/08/26 06:54:13;;;;;;;11.18;1.67;;;;;;;;;;5059252;28;20435;-68
2022/08/26 06:56:42;;;;;;;14.52;2.40;;;;;;;;;;5061971;28;20738;-67
2022/08/26 06:59:11;;;;;;;10.95;1.55;;;;;;;;;;5063649;28;20040;-66
2022/08/26 07:01:43;;;;;;;10.15;1.67;;;;;;;;;;5040529;28;20056;-67
2022/08/26 07:04:10;;;;;;;10.43;1.63;;;;;;;;;;5043148;28;20060;-66
2022/08/26 07:06:39;;;;;;;13.60;1.63;;;;;;;;;;5063357;28;20057;-66
2022/08/26 07:09:07;;;;;;;11.63;1.80;;;;;;;;;;5061341;28;20048;-67
2022/08/26 07:11:35;;;;;;;10.40;1.60;;;;;;;;;;5061810;28;20488;-69
2022/08/26 07:14:03;;;;;;;13.30;1.85;;;;;;;;;;5063202;28;20091;-67
2022/08/26 07:16:30;;;;;;;11.60;2.10;;;;;;;;;;5063202;28;20507;-65
2022/08/26 07:18:59;;;;;;;8.25;1.30;;;;;;;;;;5058410;28;20057;-65
2022/08/26 07:21:26;;;;;;;11.80;1.80;;;;;;;;;;5061082;28;20114;-65
2022/08/26 07:23:54;;;;;;;14.77;1.75;;;;;;;;;;5061137;28;20119;-65
2022/08/26 07:26:23;;;;;;;9.27;1.45;;;;;;;;;;5063317;28;20478;-65
2022/08/26 07:28:51;;;;;;;11.88;1.83;;;;;;;;;;5061761;28;20044;-67
2022/08/26 07:31:19;;;;;;;13.82;2.28;;;;;;;;;;5061212;28;20737;-66
2022/08/26 07:33:46;;;;;;;11.93;1.42;;;;;;;;;;5066884;28;20046;-66
2022/08/26 07:36:15;;;;;;;13.10;1.77;;;;;;;;;;5039482;28;20048;-66
2022/08/26 07:38:44;;;;;;;21.38;2.78;;;;;;;;;;5055224;28;20044;-66
2022/08/26 07:41:11;;;;;;;17.23;1.98;;;;;;;;;;5039445;28;20135;-66
2022/08/26 07:43:39;;;;;;;9.55;1.80;;;;;;;;;;5057446;28;20080;-66
2022/08/26 07:46:07;;;;;;;17.63;2.33;;;;;;;;;;5056178;28;20044;-67
2022/08/26 07:48:34;;;;;;;14.55;2.35;;;;;;;;;;5052659;28;20053;-66
2022/08/26 07:51:02;;;;;;;25.67;3.55;;;;;;;;;;5059599;28;20060;-67
2022/08/26 07:53:30;;;;;;;18.48;2.22;;;;;;;;;;5060381;28;20418;-66
2022/08/26 07:55:58;;;;;;;32.78;2.65;;;;;;;;;;5060804;28;20110;-65
2022/08/26 07:58:26;;;;;;;17.20;2.22;;;;;;;;;;5058301;28;20455;-66
2022/08/26 08:00:53;;;;;;;14.43;1.70;;;;;;;;;;5055601;28;20060;-66
2022/08/26 08:03:20;;;;;;;8.90;1.80;;;;;;;;;;5041020;28;20504;-66
2022/08/26 08:05:48;;;;;;;13.88;1.35;;;;;;;;;;5057060;28;20635;-67
2022/08/26 08:08:15;;;;;;;11.65;1.75;;;;;;;;;;5059244;28;20155;-67
2022/08/26 08:10:44;;;;;;;12.98;1.60;;;;;;;;;;5057694;28;20052;-68
2022/08/26 08:13:12;;;;;;;15.70;1.63;;;;;;;;;;5061071;28;20049;-67
2022/08/26 08:15:39;;;;;;;12.38;1.80;;;;;;;;;;5059731;28;20142;-66
2022/08/26 08:18:07;;;;;;;11.50;1.30;;;;;;;;;;5063362;28;20056;-67
2022/08/26 08:20:34;;;;;;;25.15;3.45;;;;;;;;;;5063903;28;20048;-67
2022/08/26 08:23:02;;;;;;;19.73;2.30;;;;;;;;;;5058117;28;20064;-68
2022/08/26 08:25:30;;;;;;;11.05;1.75;;;;;;;;;;5060434;28;20044;-67
2022/08/26 08:27:59;;;;;;;28.80;3.50;;;;;;;;;;5059025;28;20052;-67
2022/08/26 08:30:26;;;;;;;8.10;1.17;;;;;;;;;;5059229;28;20120;-67
2022/08/26 08:32:54;;;;;;;11.85;1.25;;;;;;;;;;5057578;28;20147;-67
2022/08/26 08:35:22;;;;;;;6.63;1.20;;;;;;;;;;5060346;28;20051;-67
2022/08/26 08:37:53;;;;;;;7.50;1.67;;;;;;;;;;5059591;28;20060;-67
2022/08/26 08:40:21;;;;;;;10.13;1.52;;;;;;;;;;5062135;28;20129;-67
2022/08/26 08:42:53;;;;;;;5.85;1.20;;;;;;;;;;5050964;28;20053;-67
2022/08/26 08:45:26;;;;;;;8.95;1.50;;;;;;;;;;5061165;28;20044;-66
2022/08/26 08:47:55;;;;;;;14.25;1.73;;;;;;;;;;5060026;28;20048;-67
2022/08/26 08:50:24;;;;;;;14.07;1.25;;;;;;;;;;5059386;28;20049;-67
2022/08/26 08:52:55;;;;;;;8.02;1.05;;;;;;;;;;5055131;28;20049;-67
2022/08/26 08:55:23;;;;;;;15.52;2.05;;;;;;;;;;5061427;28;20070;-67
2022/08/26 08:57:56;;;;;;;12.73;1.45;;;;;;;;;;5058455;28;20052;-67
2022/08/26 09:00:26;;;;;;;14.98;1.40;;;;;;;;;;5039889;28;20127;-67
2022/08/26 09:02:57;;;;;;;16.13;1.83;;;;;;;;;;5066469;28;20591;-67
2022/08/26 09:05:27;;;;;;;8.23;1.25;;;;;;;;;;5060371;28;20048;-68
2022/08/26 09:07:56;;;;;;;7.53;1.27;;;;;;;;;;5066271;28;20106;-67
2022/08/26 09:10:27;;;;;;;7.95;1.20;;;;;;;;;;5069314;28;20097;-67
2022/08/26 09:12:55;;;;;;;7.38;1.30;;;;;;;;;;5066639;28;20437;-67
2022/08/26 09:15:24;;;;;;;12.35;1.05;;;;;;;;;;5060897;28;20102;-67
2022/08/26 09:17:58;;;;;;;5.45;1.13;;;;;;;;;;5045099;28;20052;-67
2022/08/26 09:20:33;;;;;;;11.50;1.48;;;;;;;;;;5060289;28;20456;-67
2022/08/26 09:23:00;;;;;;;8.10;1.23;;;;;;;;;;5063556;28;20422;-67
2022/08/26 09:25:27;;;;;;;8.98;1.27;;;;;;;;;;5060875;28;20048;-67
2022/08/26 09:27:55;;;;;;;12.10;1.83;;;;;;;;;;5061069;28;20488;-67
2022/08/26 09:30:25;;;;;;;17.75;1.92;;;;;;;;;;5062197;28;20118;-67
2022/08/26 09:32:59;;;;;;;7.10;1.30;;;;;;;;;;5047391;28;20063;-66
2022/08/26 09:35:30;;;;;;;10.35;1.77;;;;;;;;;;5066358;28;20037;-65
2022/08/26 09:37:58;;;;;;;12.70;1.45;;;;;;;;;;5064364;28;20059;-65
2022/08/26 09:40:27;;;;;;;8.80;1.10;;;;;;;;;;5059869;28;20144;-65
2022/08/26 09:43:09;;;;;;;11.65;1.35;;;;;;;;;;5066649;28;20049;-65
2022/08/26 09:45:37;;;;;;;14.50;1.60;;;;;;;;;;5061533;28;20063;-65
2022/08/26 09:48:07;;;;;;;11.65;1.50;;;;;;;;;;5066520;28;20051;-64
2022/08/26 09:50:35;;;;;;;9.40;1.33;;;;;;;;;;5064868;28;20090;-65
2022/08/26 09:53:14;;;;;;;11.00;1.60;;;;;;;;;;5064015;28;20052;-66
2022/08/26 09:55:42;;;;;;;10.07;1.60;;;;;;;;;;5065252;28;20045;-65
2022/08/26 09:58:13;;;;;;;8.70;1.30;;;;;;;;;;5069526;28;20098;-65
2022/08/26 10:00:41;;;;;;;4.97;1.10;;;;;;;;;;5061009;28;20061;-65
2022/08/26 10:03:12;;;;;;;8.00;1.55;;;;;;;;;;5064224;28;20052;-65
2022/08/26 10:05:43;;;;;;;10.07;1.80;;;;;;;;;;5065991;28;20109;-64
2022/08/26 10:08:31;;;;;;;12.07;1.60;;;;;;;;;;5061527;28;20088;-65
2022/08/26 10:11:00;;;;;;;9.88;1.38;;;;;;;;;;5053990;28;20178;-65
2022/08/26 10:13:32;;;;;;;10.82;1.10;;;;;;;;;;5064695;28;20044;-65
2022/08/26 10:16:02;;;;;;;13.77;1.93;;;;;;;;;;5066772;28;20047;-65
2022/08/26 10:18:32;;;;;;;11.90;1.30;;;;;;;;;;5044205;28;20702;-65
2022/08/26 10:21:03;;;;;;;4.47;1.08;;;;;;;;;;5047924;28;20056;-64
2022/08/26 10:23:33;;;;;;;9.73;1.35;;;;;;;;;;5065736;28;20056;-65
2022/08/26 10:26:04;;;;;;;8.90;1.58;;;;;;;;;;5061944;28;20503;-64
2022/08/26 10:28:36;;;;;;;19.90;1.92;;;;;;;;;;5066115;28;20421;-66
2022/08/26 10:31:05;;;;;;;5.53;1.00;;;;;;;;;;5065486;28;20055;-65
2022/08/26 10:33:33;;;;;;;7.30;1.75;;;;;;;;;;5063193;28;20041;-66
2022/08/26 10:36:03;;;;;;;6.20;1.10;;;;;;;;;;5060641;28;20048;-65
2022/08/26 10:38:34;;;;;;;7.15;1.20;;;;;;;;;;5069519;28;20055;-65
2022/08/26 10:41:05;;;;;;;10.30;1.35;;;;;;;;;;5065319;28;20054;-65
2022/08/26 10:43:36;;;;;;;6.05;1.25;;;;;;;;;;5063607;28;20057;-66
2022/08/26 10:46:04;;;;;;;14.05;1.83;;;;;;;;;;5052357;28;20703;-65
2022/08/26 10:48:36;;;;;;;7.80;1.20;;;;;;;;;;5068229;28;20101;-64
2022/08/26 10:51:04;;;;;;;17.98;1.83;;;;;;;;;;5065786;28;20121;-66
2022/08/26 10:53:36;;;;;;;6.90;1.27;;;;;;;;;;5059003;28;20044;-65
2022/08/26 10:56:07;;;;;;;4.97;1.00;;;;;;;;;;5063724;28;20533;-64
2022/08/26 10:58:46;;;;;;;7.55;1.25;;;;;;;;;;5061055;28;20532;-65
2022/08/26 11:04:05;;;;;;;3.50;0.80;;;;;;;;;;5055795;28;20048;-65
2022/08/26 11:06:32;;;;;;;5.22;0.85;;;;;;;;;;5037233;28;20687;-65
2022/08/26 11:09:00;;;;;;;9.23;1.05;;;;;;;;;;5058849;28;20056;-65
2022/08/26 11:11:45;;;;;;;11.27;0.90;;;;;;;;;;5062876;28;20577;-64
2022/08/26 11:14:30;;;;;;;6.13;1.13;;;;;;;;;;5067433;28;20098;-65
2022/08/26 11:16:58;;;;;;;8.23;1.17;;;;;;;;;;5063594;28;20665;-65
2022/08/26 11:19:44;;;;;;;6.43;1.30;;;;;;;;;;5062217;28;20499;-65
2022/08/26 11:22:25;;;;;;;7.80;0.95;;;;;;;;;;5059336;28;20089;-65
2022/08/26 11:25:10;;;;;;;7.72;1.50;;;;;;;;;;5066515;28;20051;-65
2022/08/26 11:27:53;;;;;;;8.52;1.20;;;;;;;;;;5059581;28;20062;-65
2022/08/26 11:30:42;;;;;;;8.38;1.13;;;;;;;;;;5065206;28;20134;-65
2022/08/26 11:33:10;;;;;;;4.25;0.80;;;;;;;;;;5045073;28;20063;-65
2022/08/26 11:35:48;;;;;;;4.55;1.25;;;;;;;;;;5069543;28;20105;-65
2022/08/26 11:38:19;;;;;;;6.38;1.48;;;;;;;;;;5054453;28;20514;-65
2022/08/26 11:40:55;;;;;;;11.88;1.15;;;;;;;;;;5060922;28;20148;-65
2022/08/26 11:43:26;;;;;;;10.27;1.83;;;;;;;;;;5053574;28;20131;-65
2022/08/26 11:45:59;;;;;;;4.97;1.05;;;;;;;;;;5062344;28;20082;-65
2022/08/26 11:48:29;;;;;;;6.80;1.33;;;;;;;;;;5061689;28;20051;-65
2022/08/26 11:50:57;;;;;;;6.25;1.10;;;;;;;;;;5042452;28;20053;-64
2022/08/26 11:53:26;;;;;;;6.93;1.30;;;;;;;;;;5064643;28;20052;-65
2022/08/26 11:55:54;;;;;;;7.47;1.45;;;;;;;;;;5065415;28;20078;-66
2022/08/26 11:58:22;;;;;;;5.30;1.08;;;;;;;;;;5063712;28;20108;-64
2022/08/26 12:00:51;;;;;;;6.40;1.25;;;;;;;;;;5042444;28;20056;-65
2022/08/26 12:03:19;;;;;;;6.70;1.30;;;;;;;;;;5067276;28;20048;-65
2022/08/26 12:05:48;;;;;;;6.85;1.58;;;;;;;;;;5048535;28;20051;-65
2022/08/26 12:08:18;;;;;;;7.18;1.38;;;;;;;;;;5067036;28;20139;-64
2022/08/26 12:10:47;;;;;;;7.38;1.60;;;;;;;;;;5063857;28;20463;-65
2022/08/26 12:13:21;;;;;;;8.18;1.30;;;;;;;;;;5061626;28;20055;-65
2022/08/26 12:15:53;;;;;;;6.82;1.30;;;;;;;;;;5059026;28;20070;-65
2022/08/26 12:18:21;;;;;;;4.38;1.10;;;;;;;;;;5061568;28;20806;-65
2022/08/26 12:20:52;;;;;;;6.82;1.10;;;;;;;;;;5043749;28;20056;-66
2022/08/26 12:23:24;;;;;;;8.50;1.80;;;;;;;;;;5058592;28;20080;-64
2022/08/26 12:25:53;;;;;;;12.20;1.90;;;;;;;;;;5041706;28;20052;-65
2022/08/26 12:28:20;;;;;;;7.82;1.05;;;;;;;;;;5043868;28;20049;-65
2022/08/26 12:31:00;;;;;;;5.20;1.50;;;;;;;;;;5068415;28;20060;-65
2022/08/26 12:33:28;;;;;;;6.22;1.40;;;;;;;;;;5061671;28;20110;-65
2022/08/26 12:35:56;;;;;;;4.55;0.88;;;;;;;;;;5061503;28;20036;-64
2022/08/26 12:38:24;;;;;;;5.85;1.15;;;;;;;;;;5067143;28;20049;-64
2022/08/26 12:40:53;;;;;;;6.10;1.10;;;;;;;;;;5066550;28;20083;-65
2022/08/26 12:43:35;;;;;;;8.30;1.30;;;;;;;;;;5063472;28;20522;-65
2022/08/26 12:46:03;;;;;;;6.10;0.98;;;;;;;;;;5060720;28;20060;-65
2022/08/26 12:48:32;;;;;;;10.18;1.33;;;;;;;;;;5066656;28;20044;-65
2022/08/26 12:51:00;;;;;;;8.20;1.20;;;;;;;;;;5063089;28;20742;-64
2022/08/26 12:53:29;;;;;;;5.13;1.25;;;;;;;;;;5062049;28;20056;-65
2022/08/26 12:55:59;;;;;;;6.25;1.42;;;;;;;;;;5065686;28;20051;-64
2022/08/26 12:58:27;;;;;;;11.50;1.20;;;;;;;;;;5050753;28;20052;-65
2022/08/26 13:00:55;;;;;;;6.20;1.38;;;;;;;;;;5066004;28;20041;-64
2022/08/26 13:03:30;;;;;;;5.25;1.17;;;;;;;;;;5068635;28;20053;-66
2022/08/26 13:06:09;;;;;;;5.35;1.00;;;;;;;;;;5064704;28;20045;-65
2022/08/26 13:08:44;;;;;;;6.28;1.15;;;;;;;;;;5061231;28;20112;-65
2022/08/26 13:11:19;;;;;;;8.88;1.45;;;;;;;;;;5068021;28;20053;-64
2022/08/26 13:13:46;;;;;;;12.57;1.45;;;;;;;;;;5068816;28;20044;-65
2022/08/26 13:16:14;;;;;;;9.20;1.50;;;;;;;;;;5066265;28;20048;-65
2022/08/26 13:18:41;;;;;;;7.82;2.35;;;;;;;;;;5064813;28;20110;-65
2022/08/26 13:21:09;;;;;;;8.20;1.75;;;;;;;;;;5059767;28;20045;-64
2022/08/26 13:23:37;;;;;;;12.18;1.92;;;;;;;;;;5053580;28;20052;-65
2022/08/26 13:26:04;;;;;;;8.25;1.90;;;;;;;;;;5066950;28;20051;-65
2022/08/26 13:28:33;;;;;;;8.07;1.48;;;;;;;;;;5054690;28;20045;-65
2022/08/26 13:31:00;;;;;;;14.65;2.70;;;;;;;;;;5059314;28;20057;-64
2022/08/26 13:33:27;;;;;;;7.93;1.42;;;;;;;;;;5069778;28;20115;-64
2022/08/26 13:35:54;;;;;;;12.73;2.08;;;;;;;;;;5055528;28;20091;-65
2022/08/26 13:38:22;;;;;;;19.98;4.63;;;;;;;;;;5049588;28;20052;-65
2022/08/26 13:40:49;;;;;;;7.75;1.42;;;;;;;;;;5067549;28;20568;-65
2022/08/26 13:43:16;;;;;;;7.55;1.13;;;;;;;;;;5065022;28;20553;-65
2022/08/26 13:45:48;;;;;;;4.82;1.08;;;;;;;;;;5065542;28;20057;-64
2022/08/26 13:48:17;;;;;;;6.78;1.33;;;;;;;;;;5065142;28;20048;-65
2022/08/26 13:50:45;;;;;;;8.20;1.00;;;;;;;;;;5060643;28;20098;-65
2022/08/26 13:53:12;;;;;;;7.72;1.30;;;;;;;;;;5065106;28;20044;-65
2022/08/26 13:55:39;;;;;;;8.10;1.48;;;;;;;;;;5064113;28;20044;-65
2022/08/26 13:58:06;;;;;;;9.05;1.83;;;;;;;;;;5068073;28;20056;-65
2022/08/26 14:00:34;;;;;;;6.55;1.10;;;;;;;;;;5044745;28;20052;-65
2022/08/26 14:03:03;;;;;;;6.20;1.52;;;;;;;;;;5054120;28;20048;-65
2022/08/26 14:05:31;;;;;;;5.72;1.20;;;;;;;;;;5063234;28;20045;-65
2022/08/26 14:07:58;;;;;;;9.90;1.30;;;;;;;;;;5061036;28;20296;-65
2022/08/26 14:10:26;;;;;;;8.02;2.00;;;;;;;;;;5066740;28;20055;-65
2022/08/26 14:12:54;;;;;;;7.38;1.30;;;;;;;;;;5058395;28;20127;-65
2022/08/26 14:15:21;;;;;;;7.38;1.58;;;;;;;;;;5045122;28;20143;-64
2022/08/26 14:17:49;;;;;;;9.43;1.30;;;;;;;;;;5040165;28;20072;-65
2022/08/26 14:20:20;;;;;;;7.82;1.48;;;;;;;;;;5061740;28;20052;-65
2022/08/26 14:22:47;;;;;;;5.55;1.30;;;;;;;;;;5058292;28;20055;-65
2022/08/26 14:25:15;;;;;;;9.32;1.60;;;;;;;;;;5066759;28;20048;-66
2022/08/26 14:27:43;;;;;;;11.65;1.23;;;;;;;;;;5062525;28;20052;-66
2022/08/26 14:30:11;;;;;;;6.60;2.28;;;;;;;;;;5061821;28;20049;-65
2022/08/26 14:32:39;;;;;;;8.50;1.38;;;;;;;;;;5055862;28;20045;-65
2022/08/26 14:35:07;;;;;;;5.05;1.30;;;;;;;;;;5060729;28;20056;-65
2022/08/26 14:37:36;;;;;;;6.78;1.67;;;;;;;;;;5065757;28;20055;-64
2022/08/26 14:40:04;;;;;;;8.02;1.88;;;;;;;;;;5061081;28;20052;-65
2022/08/26 14:42:32;;;;;;;7.43;1.55;;;;;;;;;;5060172;28;20044;-65
2022/08/26 14:45:00;;;;;;;10.10;1.55;;;;;;;;;;5065761;28;20082;-66
2022/08/26 14:47:28;;;;;;;7.05;1.17;;;;;;;;;;5049657;28;20056;-65
2022/08/26 14:49:55;;;;;;;9.45;1.52;;;;;;;;;;5065109;28;20055;-65
2022/08/26 14:52:22;;;;;;;6.47;1.48;;;;;;;;;;5048420;28;20052;-66
2022/08/26 14:54:50;;;;;;;6.05;1.60;;;;;;;;;;5061300;28;20554;-66
2022/08/26 14:57:17;;;;;;;7.63;1.52;;;;;;;;;;5044546;28;20051;-65